sensor_id;sensor_type;location;lat;lon;timestamp;pressure;altitude;pressure_sealevel;temperature;humidity
30935;BME280;51033;42.648;23.292;2022-10-30T00:01:55;94629.91;;;12.63;46.01
30935;BME280;51033;42.648;23.292;2022-10-30T00:04:21;94624.34;;;12.51;46.38
30935;BME280;51033;42.648;23.292;2022-10-30T00:06:47;94611.59;;;12.48;46.63
30935;BME280;51033;42.648;23.292;2022-10-30T00:09:13;94555.47;;;12.09;46.46
30935;BME280;51033;42.648;23.292;2022-10-30T00:11:39;94601.38;;;12.41;46.33
30935;BME280;51033;42.648;23.292;2022-10-30T00:14:05;94620.53;;;12.52;46.65
30935;BME280;51033;42.648;23.292;2022-10-30T00:16:30;94604.31;;;12.40;46.67
30935;BME280;51033;42.648;23.292;2022-10-30T00:18:56;94593.41;;;12.28;46.68
30935;BME280;51033;42.648;23.292;2022-10-30T00:21:21;94618.63;;;12.44;46.63
30935;BME280;51033;42.648;23.292;2022-10-30T00:23:48;94612.19;;;12.45;46.63
30935;BME280;51033;42.648;23.292;2022-10-30T00:26:15;94606.31;;;12.34;46.71
30935;BME280;51033;42.648;23.292;2022-10-30T00:28:40;94624.13;;;12.47;46.34
30935;BME280;51033;42.648;23.292;2022-10-30T00:31:06;94620.22;;;12.45;46.66
30935;BME280;51033;42.648;23.292;2022-10-30T00:33:31;94594.53;;;12.27;46.42
30935;BME280;51033;42.648;23.292;2022-10-30T00:35:57;94604.31;;;12.40;46.67
30935;BME280;51033;42.648;23.292;2022-10-30T00:38:23;94607.63;;;12.37;46.76
30935;BME280;51033;42.648;23.292;2022-10-30T00:40:49;94608.16;;;12.25;46.69
30935;BME280;51033;42.648;23.292;2022-10-30T00:43:32;94606.28;;;12.26;46.58
30935;BME280;51033;42.648;23.292;2022-10-30T00:46:07;94596.94;;;12.15;46.54
30935;BME280;51033;42.648;23.292;2022-10-30T00:48:38;94612.53;;;12.21;46.92
30935;BME280;51033;42.648;23.292;2022-10-30T00:51:07;94584.34;;;12.07;46.61
30935;BME280;51033;42.648;23.292;2022-10-30T00:53:33;94574.75;;;12.06;46.95
30935;BME280;51033;42.648;23.292;2022-10-30T00:56:02;94614.88;;;12.23;46.72
30935;BME280;51033;42.648;23.292;2022-10-30T00:58:33;94596.94;;;12.15;46.66
30935;BME280;51033;42.648;23.292;2022-10-30T01:01:03;94592.81;;;12.09;46.62
30935;BME280;51033;42.648;23.292;2022-10-30T01:03:30;94578.63;;;11.99;46.65
30935;BME280;51033;42.648;23.292;2022-10-30T01:05:59;94581.81;;;12.01;46.97
30935;BME280;51033;42.648;23.292;2022-10-30T01:08:26;94574.72;;;11.97;47.08
30935;BME280;51033;42.648;23.292;2022-10-30T01:10:52;94598.81;;;12.14;47.01
30935;BME280;51033;42.648;23.292;2022-10-30T01:13:19;94601.19;;;12.16;46.89
30935;BME280;51033;42.648;23.292;2022-10-30T01:21:11;94573.69;;;12.07;48.05
30935;BME280;51033;42.648;23.292;2022-10-30T01:37:00;94567.00;;;11.95;47.97
30935;BME280;51033;42.648;23.292;2022-10-30T01:39:32;94521.44;;;11.61;47.98
30935;BME280;51033;42.648;23.292;2022-10-30T01:41:58;94569.66;;;11.95;47.72
30935;BME280;51033;42.648;23.292;2022-10-30T01:44:29;94545.38;;;11.75;47.59
30935;BME280;51033;42.648;23.292;2022-10-30T01:49:37;94571.38;;;11.91;48.06
30935;BME280;51033;42.648;23.292;2022-10-30T01:52:27;94570.41;;;11.87;48.28
30935;BME280;51033;42.648;23.292;2022-10-30T01:55:01;94562.41;;;11.87;48.36
30935;BME280;51033;42.648;23.292;2022-10-30T02:00:23;94562.88;;;11.89;48.36
30935;BME280;51033;42.648;23.292;2022-10-30T02:02:50;94561.91;;;11.85;48.33
30935;BME280;51033;42.648;23.292;2022-10-30T02:05:30;94560.94;;;11.81;47.94
30935;BME280;51033;42.648;23.292;2022-10-30T02:07:57;94537.44;;;11.61;48.11
30935;BME280;51033;42.648;23.292;2022-10-30T02:10:23;94559.59;;;11.70;48.35
30935;BME280;51033;42.648;23.292;2022-10-30T02:12:48;94561.41;;;11.61;48.46
30935;BME280;51033;42.648;23.292;2022-10-30T02:15:14;94533.50;;;11.45;48.36
30935;BME280;51033;42.648;23.292;2022-10-30T02:17:39;94530.03;;;11.44;48.60
30935;BME280;51033;42.648;23.292;2022-10-30T02:20:06;94546.22;;;11.48;49.19
30935;BME280;51033;42.648;23.292;2022-10-30T02:22:31;94531.44;;;11.42;48.64
30935;BME280;51033;42.648;23.292;2022-10-30T02:24:57;94558.97;;;11.51;49.09
30935;BME280;51033;42.648;23.292;2022-10-30T02:27:22;94527.91;;;11.33;48.97
30935;BME280;51033;42.648;23.292;2022-10-30T02:29:47;94549.97;;;11.47;49.02
30935;BME280;51033;42.648;23.292;2022-10-30T02:32:13;94544.66;;;11.47;49.24
30935;BME280;51033;42.648;23.292;2022-10-30T02:34:38;94523.19;;;11.30;49.18
30935;BME280;51033;42.648;23.292;2022-10-30T02:37:04;94550.41;;;11.54;49.38
30935;BME280;51033;42.648;23.292;2022-10-30T02:39:29;94533.03;;;11.43;49.15
30935;BME280;51033;42.648;23.292;2022-10-30T02:41:54;94540.69;;;11.44;49.47
30935;BME280;51033;42.648;23.292;2022-10-30T02:44:20;94552.03;;;11.50;49.16
30935;BME280;51033;42.648;23.292;2022-10-30T02:46:45;94521.81;;;11.32;49.16
30935;BME280;51033;42.648;23.292;2022-10-30T02:49:11;94534.03;;;11.33;49.13
30935;BME280;51033;42.648;23.292;2022-10-30T02:51:36;94544.25;;;11.40;49.61
30935;BME280;51033;42.648;23.292;2022-10-30T02:54:02;94506.44;;;11.15;49.47
30935;BME280;51033;42.648;23.292;2022-10-30T02:56:27;94542.03;;;11.33;49.18
30935;BME280;51033;42.648;23.292;2022-10-30T02:58:54;94519.47;;;11.17;49.18
30935;BME280;51033;42.648;23.292;2022-10-30T03:01:20;94548.22;;;11.42;49.13
30935;BME280;51033;42.648;23.292;2022-10-30T03:03:45;94560.25;;;11.40;49.65
30935;BME280;51033;42.648;23.292;2022-10-30T03:06:13;94490.44;;;10.93;49.87
30935;BME280;51033;42.648;23.292;2022-10-30T03:08:40;94540.66;;;11.22;49.93
30935;BME280;51033;42.648;23.292;2022-10-30T03:11:17;94569.34;;;11.39;50.15
30935;BME280;51033;42.648;23.292;2022-10-30T03:13:44;94573.56;;;11.40;49.88
30935;BME280;51033;42.648;23.292;2022-10-30T03:16:12;94571.22;;;11.38;50.20
30935;BME280;51033;42.648;23.292;2022-10-30T03:18:38;94576.22;;;11.40;50.17
30935;BME280;51033;42.648;23.292;2022-10-30T03:21:06;94577.81;;;11.41;49.89
30935;BME280;51033;42.648;23.292;2022-10-30T03:23:31;94578.41;;;11.38;50.36
30935;BME280;51033;42.648;23.292;2022-10-30T03:25:58;94579.50;;;11.37;50.09
30935;BME280;51033;42.648;23.292;2022-10-30T03:28:25;94572.28;;;11.37;49.88
30935;BME280;51033;42.648;23.292;2022-10-30T03:30:57;94572.13;;;11.34;50.04
30935;BME280;51033;42.648;23.292;2022-10-30T03:33:22;94576.81;;;11.37;50.13
30935;BME280;51033;42.648;23.292;2022-10-30T03:35:48;94554.16;;;11.26;50.50
30935;BME280;51033;42.648;23.292;2022-10-30T03:38:13;94530.91;;;11.17;50.89
30935;BME280;51033;42.648;23.292;2022-10-30T03:40:39;94554.72;;;11.36;51.09
30935;BME280;51033;42.648;23.292;2022-10-30T03:43:06;94528.63;;;11.25;50.98
30935;BME280;51033;42.648;23.292;2022-10-30T03:45:32;94541.53;;;11.31;51.23
30935;BME280;51033;42.648;23.292;2022-10-30T03:48:01;94547.75;;;11.27;51.55
30935;BME280;51033;42.648;23.292;2022-10-30T03:50:28;94534.53;;;11.22;51.50
30935;BME280;51033;42.648;23.292;2022-10-30T03:52:54;94547.94;;;11.30;51.21
30935;BME280;51033;42.648;23.292;2022-10-30T03:55:20;94556.72;;;11.31;51.37
30935;BME280;51033;42.648;23.292;2022-10-30T03:57:46;94568.34;;;11.35;51.42
30935;BME280;51033;42.648;23.292;2022-10-30T04:00:12;94530.91;;;11.17;51.42
30935;BME280;51033;42.648;23.292;2022-10-30T04:02:38;94545.38;;;11.25;51.11
30935;BME280;51033;42.648;23.292;2022-10-30T04:05:03;94554.91;;;11.40;51.07
30935;BME280;51033;42.648;23.292;2022-10-30T04:07:29;94516.50;;;11.18;51.03
30935;BME280;51033;42.648;23.292;2022-10-30T04:09:54;94540.50;;;11.41;50.92
30935;BME280;51033;42.648;23.292;2022-10-30T04:12:20;94533.13;;;11.38;50.75
30935;BME280;51033;42.648;23.292;2022-10-30T04:14:45;94492.28;;;11.06;50.53
30935;BME280;51033;42.648;23.292;2022-10-30T04:17:11;94541.72;;;11.35;50.77
30935;BME280;51033;42.648;23.292;2022-10-30T04:19:36;94513.47;;;11.11;50.65
30935;BME280;51033;42.648;23.292;2022-10-30T04:22:02;94540.25;;;11.29;50.45
30935;BME280;51033;42.648;23.292;2022-10-30T04:24:27;94493.69;;;10.90;50.58
30935;BME280;51033;42.648;23.292;2022-10-30T04:26:53;94533.56;;;11.17;50.62
30935;BME280;51033;42.648;23.292;2022-10-30T04:29:18;94542.94;;;11.15;50.61
30935;BME280;51033;42.648;23.292;2022-10-30T04:31:43;94524.53;;;11.05;50.97
30935;BME280;51033;42.648;23.292;2022-10-30T04:34:09;94545.69;;;11.24;50.84
30935;BME280;51033;42.648;23.292;2022-10-30T04:36:36;94534.66;;;11.16;50.65
30935;BME280;51033;42.648;23.292;2022-10-30T04:39:01;94514.28;;;10.98;50.83
30935;BME280;51033;42.648;23.292;2022-10-30T04:41:27;94537.13;;;11.13;50.83
30935;BME280;51033;42.648;23.292;2022-10-30T04:43:52;94534.06;;;11.06;51.06
30935;BME280;51033;42.648;23.292;2022-10-30T04:46:18;94559.50;;;11.12;51.16
30935;BME280;51033;42.648;23.292;2022-10-30T04:48:44;94555.59;;;11.09;50.81
30935;BME280;51033;42.648;23.292;2022-10-30T04:51:09;94545.03;;;11.04;50.75
30935;BME280;51033;42.648;23.292;2022-10-30T04:53:36;94550.84;;;11.06;50.35
30935;BME280;51033;42.648;23.292;2022-10-30T04:56:02;94565.63;;;11.12;50.68
30935;BME280;51033;42.648;23.292;2022-10-30T04:58:28;94555.19;;;11.02;50.55
30935;BME280;51033;42.648;23.292;2022-10-30T05:00:53;94540.50;;;10.91;50.66
30935;BME280;51033;42.648;23.292;2022-10-30T05:03:21;94546.94;;;10.90;50.62
30935;BME280;51033;42.648;23.292;2022-10-30T05:05:47;94543.06;;;10.83;50.77
30935;BME280;51033;42.648;23.292;2022-10-30T05:08:19;94564.25;;;11.01;50.57
30935;BME280;51033;42.648;23.292;2022-10-30T05:10:45;94545.91;;;10.86;50.53
30935;BME280;51033;42.648;23.292;2022-10-30T05:13:10;94535.69;;;10.80;50.79
30935;BME280;51033;42.648;23.292;2022-10-30T05:15:36;94556.78;;;10.90;50.48
30935;BME280;51033;42.648;23.292;2022-10-30T05:18:02;94569.19;;;10.94;50.70
30935;BME280;51033;42.648;23.292;2022-10-30T05:20:27;94553.81;;;10.78;50.65
30935;BME280;51033;42.648;23.292;2022-10-30T05:22:54;94583.59;;;10.93;50.76
30935;BME280;51033;42.648;23.292;2022-10-30T05:25:20;94556.00;;;10.76;50.99
30935;BME280;51033;42.648;23.292;2022-10-30T05:27:45;94582.28;;;10.91;51.22
30935;BME280;51033;42.648;23.292;2022-10-30T05:30:11;94576.50;;;10.89;50.94
30935;BME280;51033;42.648;23.292;2022-10-30T05:32:36;94556.97;;;10.80;51.07
30935;BME280;51033;42.648;23.292;2022-10-30T05:35:02;94556.00;;;10.76;50.96
30935;BME280;51033;42.648;23.292;2022-10-30T05:37:27;94579.84;;;10.94;51.27
30935;BME280;51033;42.648;23.292;2022-10-30T05:39:53;94581.44;;;10.95;51.29
30935;BME280;51033;42.648;23.292;2022-10-30T05:42:18;94532.44;;;10.69;51.43
30935;BME280;51033;42.648;23.292;2022-10-30T05:44:44;94576.28;;;10.99;51.38
30935;BME280;51033;42.648;23.292;2022-10-30T05:47:10;94541.81;;;10.80;51.62
30935;BME280;51033;42.648;23.292;2022-10-30T05:49:36;94534.09;;;10.79;51.52
30935;BME280;51033;42.648;23.292;2022-10-30T05:52:04;94573.63;;;11.12;51.48
30935;BME280;51033;42.648;23.292;2022-10-30T05:54:29;94578.84;;;11.17;51.57
30935;BME280;51033;42.648;23.292;2022-10-30T05:56:56;94570.06;;;11.17;51.95
30935;BME280;51033;42.648;23.292;2022-10-30T05:59:22;94572.78;;;11.26;51.55
30935;BME280;51033;42.648;23.292;2022-10-30T06:01:47;94551.72;;;11.15;51.85
30935;BME280;51033;42.648;23.292;2022-10-30T06:04:13;94545.38;;;11.25;52.06
30935;BME280;51033;42.648;23.292;2022-10-30T06:06:38;94566.84;;;11.42;52.30
30935;BME280;51033;42.648;23.292;2022-10-30T06:09:04;94557.47;;;11.45;51.96
30935;BME280;51033;42.648;23.292;2022-10-30T06:11:29;94565.75;;;11.57;52.08
30935;BME280;51033;42.648;23.292;2022-10-30T06:13:54;94569.69;;;11.46;52.57
30935;BME280;51033;42.648;23.292;2022-10-30T06:16:20;94565.00;;;11.43;52.60
30935;BME280;51033;42.648;23.292;2022-10-30T06:18:45;94564.38;;;11.46;52.40
30935;BME280;51033;42.648;23.292;2022-10-30T06:21:11;94581.06;;;11.51;52.96
30935;BME280;51033;42.648;23.292;2022-10-30T06:23:36;94549.00;;;11.43;52.61
30935;BME280;51033;42.648;23.292;2022-10-30T06:26:04;94578.06;;;11.67;52.46
30935;BME280;51033;42.648;23.292;2022-10-30T06:28:30;94565.72;;;11.71;52.33
30935;BME280;51033;42.648;23.292;2022-10-30T06:30:55;94538.50;;;11.60;52.33
30935;BME280;51033;42.648;23.292;2022-10-30T06:33:21;94565.66;;;11.84;52.52
30935;BME280;51033;42.648;23.292;2022-10-30T06:35:49;94544.09;;;11.72;52.44
30935;BME280;51033;42.648;23.292;2022-10-30T06:38:15;94558.16;;;11.86;52.17
30935;BME280;51033;42.648;23.292;2022-10-30T06:40:41;94583.38;;;12.02;52.01
30935;BME280;51033;42.648;23.292;2022-10-30T06:43:06;94583.78;;;11.96;51.90
30935;BME280;51033;42.648;23.292;2022-10-30T06:45:33;94586.94;;;11.98;51.55
30935;BME280;51033;42.648;23.292;2022-10-30T06:47:59;94569.78;;;11.90;51.84
30935;BME280;51033;42.648;23.292;2022-10-30T06:50:26;94584.34;;;12.07;52.17
30935;BME280;51033;42.648;23.292;2022-10-30T06:52:51;94586.88;;;12.12;51.88
30935;BME280;51033;42.648;23.292;2022-10-30T06:55:19;94585.06;;;12.21;51.93
30935;BME280;51033;42.648;23.292;2022-10-30T06:57:45;94591.38;;;12.25;51.68
30935;BME280;51033;42.648;23.292;2022-10-30T07:00:11;94597.06;;;12.32;51.75
30935;BME280;51033;42.648;23.292;2022-10-30T07:02:37;94571.13;;;12.24;51.22
30935;BME280;51033;42.648;23.292;2022-10-30T07:05:05;94540.97;;;11.92;51.25
30935;BME280;51033;42.648;23.292;2022-10-30T07:07:31;94565.72;;;12.15;50.97
30935;BME280;51033;42.648;23.292;2022-10-30T07:09:56;94556.53;;;12.21;51.05
30935;BME280;51033;42.648;23.292;2022-10-30T07:12:22;94579.56;;;12.48;51.19
30935;BME280;51033;42.648;23.292;2022-10-30T07:14:47;94586.47;;;12.49;51.39
30935;BME280;51033;42.648;23.292;2022-10-30T07:17:12;94574.34;;;12.43;51.24
30935;BME280;51033;42.648;23.292;2022-10-30T07:19:38;94564.50;;;12.52;51.07
30935;BME280;51033;42.648;23.292;2022-10-30T07:22:03;94582.22;;;12.70;50.78
30935;BME280;51033;42.648;23.292;2022-10-30T07:24:28;94551.84;;;12.58;50.58
30935;BME280;51033;42.648;23.292;2022-10-30T07:26:55;94579.16;;;12.85;50.50
30935;BME280;51033;42.648;23.292;2022-10-30T07:29:20;94580.44;;;12.97;50.04
30935;BME280;51033;42.648;23.292;2022-10-30T07:31:46;94571.97;;;12.95;50.06
30935;BME280;51033;42.648;23.292;2022-10-30T07:34:11;94569.16;;;13.00;49.84
30935;BME280;51033;42.648;23.292;2022-10-30T07:36:37;94563.22;;;13.11;49.67
30935;BME280;51033;42.648;23.292;2022-10-30T07:39:02;94572.47;;;13.05;49.74
30935;BME280;51033;42.648;23.292;2022-10-30T07:41:28;94573.75;;;13.16;49.94
30935;BME280;51033;42.648;23.292;2022-10-30T07:43:53;94550.63;;;13.12;49.57
30935;BME280;51033;42.648;23.292;2022-10-30T07:46:19;94573.31;;;13.23;49.61
30935;BME280;51033;42.648;23.292;2022-10-30T07:48:45;94509.41;;;12.78;49.71
30935;BME280;51033;42.648;23.292;2022-10-30T07:51:10;94574.25;;;13.27;49.76
30935;BME280;51033;42.648;23.292;2022-10-30T07:53:36;94557.72;;;13.16;50.10
30935;BME280;51033;42.648;23.292;2022-10-30T07:56:01;94557.41;;;13.18;50.10
30935;BME280;51033;42.648;23.292;2022-10-30T07:58:26;94506.28;;;12.85;50.07
30935;BME280;51033;42.648;23.292;2022-10-30T08:00:52;94537.94;;;13.17;50.29
30935;BME280;51033;42.648;23.292;2022-10-30T08:03:17;94548.66;;;13.35;50.21
30935;BME280;51033;42.648;23.292;2022-10-30T08:05:43;94531.66;;;13.22;51.11
30935;BME280;51033;42.648;23.292;2022-10-30T08:08:08;94514.97;;;13.16;51.01
30935;BME280;51033;42.648;23.292;2022-10-30T08:10:34;94530.72;;;13.35;51.33
30935;BME280;51033;42.648;23.292;2022-10-30T08:13:00;94532.94;;;13.50;51.42
30935;BME280;51033;42.648;23.292;2022-10-30T08:15:26;94528.06;;;13.52;51.03
30935;BME280;51033;42.648;23.292;2022-10-30T08:17:52;94538.78;;;13.69;50.58
30935;BME280;51033;42.648;23.292;2022-10-30T08:20:20;94525.28;;;13.74;50.85
30935;BME280;51033;42.648;23.292;2022-10-30T08:22:47;94535.97;;;13.92;50.75
30935;BME280;51033;42.648;23.292;2022-10-30T08:25:14;94527.63;;;13.85;50.30
30935;BME280;51033;42.648;23.292;2022-10-30T08:27:49;94529.50;;;14.01;50.15
30935;BME280;51033;42.648;23.292;2022-10-30T08:30:15;94524.44;;;14.08;50.03
30935;BME280;51033;42.648;23.292;2022-10-30T08:32:40;94498.66;;;14.04;49.77
30935;BME280;51033;42.648;23.292;2022-10-30T08:35:06;94523.00;;;14.28;49.79
30935;BME280;51033;42.648;23.292;2022-10-30T08:37:32;94536.97;;;14.42;49.59
30935;BME280;51033;42.648;23.292;2022-10-30T08:39:57;94535.78;;;14.23;49.73
30935;BME280;51033;42.648;23.292;2022-10-30T08:42:22;94528.78;;;14.39;49.66
30935;BME280;51033;42.648;23.292;2022-10-30T08:44:48;94535.53;;;14.53;49.27
30935;BME280;51033;42.648;23.292;2022-10-30T08:47:13;94501.84;;;14.44;48.92
30935;BME280;51033;42.648;23.292;2022-10-30T08:49:38;94502.78;;;14.48;48.60
30935;BME280;51033;42.648;23.292;2022-10-30T08:52:07;94516.94;;;14.66;48.86
30935;BME280;51033;42.648;23.292;2022-10-30T08:54:33;94531.34;;;14.82;48.53
30935;BME280;51033;42.648;23.292;2022-10-30T08:56:58;94536.59;;;14.70;48.38
30935;BME280;51033;42.648;23.292;2022-10-30T08:59:23;94467.53;;;14.54;48.01
30935;BME280;51033;42.648;23.292;2022-10-30T09:01:49;94493.41;;;14.80;47.62
30935;BME280;51033;42.648;23.292;2022-10-30T09:04:15;94510.69;;;14.82;47.59
30935;BME280;51033;42.648;23.292;2022-10-30T09:06:40;94494.88;;;14.69;47.40
30935;BME280;51033;42.648;23.292;2022-10-30T09:09:06;94488.84;;;14.72;47.65
30935;BME280;51033;42.648;23.292;2022-10-30T09:11:31;94476.06;;;14.77;48.23
30935;BME280;51033;42.648;23.292;2022-10-30T09:13:57;94511.97;;;15.14;47.57
30935;BME280;51033;42.648;23.292;2022-10-30T09:16:22;94504.25;;;15.13;47.58
30935;BME280;51033;42.648;23.292;2022-10-30T09:18:47;94482.50;;;15.14;47.47
30935;BME280;51033;42.648;23.292;2022-10-30T09:21:13;94472.88;;;15.13;47.22
30935;BME280;51033;42.648;23.292;2022-10-30T09:23:38;94490.28;;;15.28;47.06
30935;BME280;51033;42.648;23.292;2022-10-30T09:26:04;94488.81;;;15.30;46.78
30935;BME280;51033;42.648;23.292;2022-10-30T09:28:29;94479.06;;;15.34;46.41
30935;BME280;51033;42.648;23.292;2022-10-30T09:30:54;94510.91;;;15.57;46.16
30935;BME280;51033;42.648;23.292;2022-10-30T09:33:21;94494.56;;;15.50;46.20
30935;BME280;51033;42.648;23.292;2022-10-30T09:35:46;94489.72;;;15.64;45.88
30935;BME280;51033;42.648;23.292;2022-10-30T09:38:12;94501.19;;;15.85;45.86
30935;BME280;51033;42.648;23.292;2022-10-30T10:04:51;94462.97;;;16.21;44.83
30935;BME280;51033;42.648;23.292;2022-10-30T10:09:46;94447.28;;;16.44;44.90
30935;BME280;51033;42.648;23.292;2022-10-30T10:14:49;94445.50;;;16.72;44.18
30935;BME280;51033;42.648;23.292;2022-10-30T10:17:24;94389.34;;;16.43;43.31
30935;BME280;51033;42.648;23.292;2022-10-30T10:20:00;94410.47;;;16.56;43.22
30935;BME280;51033;42.648;23.292;2022-10-30T10:24:56;94407.88;;;16.84;42.95
30935;BME280;51033;42.648;23.292;2022-10-30T10:30:23;94401.13;;;17.02;41.31
30935;BME280;51033;42.648;23.292;2022-10-30T10:35:52;94405.16;;;17.08;42.00
30935;BME280;51033;42.648;23.292;2022-10-30T10:41:22;94393.09;;;17.14;42.09
30935;BME280;51033;42.648;23.292;2022-10-30T10:50:02;94374.19;;;17.39;42.47
30935;BME280;51033;42.648;23.292;2022-10-30T10:52:46;94384.22;;;17.54;41.27
30935;BME280;51033;42.648;23.292;2022-10-30T10:55:21;94379.00;;;17.61;41.43
30935;BME280;51033;42.648;23.292;2022-10-30T10:57:50;94373.03;;;17.68;41.36
30935;BME280;51033;42.648;23.292;2022-10-30T11:00:19;94390.88;;;17.88;41.03
30935;BME280;51033;42.648;23.292;2022-10-30T11:05:34;94357.81;;;17.87;40.65
30935;BME280;51033;42.648;23.292;2022-10-30T11:08:18;94369.16;;;18.09;40.08
30935;BME280;51033;42.648;23.292;2022-10-30T11:10:49;94350.72;;;18.11;39.97
30935;BME280;51033;42.648;23.292;2022-10-30T11:13:15;94357.84;;;18.34;39.62
30935;BME280;51033;42.648;23.292;2022-10-30T11:18:25;94348.44;;;18.44;39.15
30935;BME280;51033;42.648;23.292;2022-10-30T11:21:06;94349.22;;;18.60;38.69
30935;BME280;51033;42.648;23.292;2022-10-30T11:23:40;94338.16;;;18.65;37.89
30935;BME280;51033;42.648;23.292;2022-10-30T11:31:39;94316.03;;;18.72;37.53
30935;BME280;51033;42.648;23.292;2022-10-30T11:36:50;94338.88;;;18.97;37.59
30935;BME280;51033;42.648;23.292;2022-10-30T11:39:28;94328.97;;;19.01;37.51
30935;BME280;51033;42.648;23.292;2022-10-30T11:42:05;94324.84;;;19.07;37.06
30935;BME280;51033;42.648;23.292;2022-10-30T11:44:36;94331.75;;;19.05;36.34
30935;BME280;51033;42.648;23.292;2022-10-30T11:47:04;94308.38;;;18.93;37.06
30935;BME280;51033;42.648;23.292;2022-10-30T11:51:57;94306.34;;;19.06;36.13
30935;BME280;51033;42.648;23.292;2022-10-30T11:54:24;94312.88;;;19.24;36.40
30935;BME280;51033;42.648;23.292;2022-10-30T11:56:50;94281.53;;;19.16;36.09
30935;BME280;51033;42.648;23.292;2022-10-30T11:59:21;94298.31;;;19.28;36.04
30935;BME280;51033;42.648;23.292;2022-10-30T12:02:02;94295.41;;;19.37;35.54
30935;BME280;51033;42.648;23.292;2022-10-30T12:04:43;94315.06;;;19.57;35.16
30935;BME280;51033;42.648;23.292;2022-10-30T12:07:31;94314.44;;;19.63;35.34
30935;BME280;51033;42.648;23.292;2022-10-30T12:09:57;94311.50;;;19.72;35.35
30935;BME280;51033;42.648;23.292;2022-10-30T12:12:37;94293.03;;;19.74;35.35
30935;BME280;51033;42.648;23.292;2022-10-30T12:15:19;94286.00;;;19.69;34.48
30935;BME280;51033;42.648;23.292;2022-10-30T12:17:52;94305.69;;;19.93;34.53
30935;BME280;51033;42.648;23.292;2022-10-30T12:20:18;94276.34;;;19.68;33.96
30935;BME280;51033;42.648;23.292;2022-10-30T12:22:45;94298.72;;;19.92;34.59
30935;BME280;51033;42.648;23.292;2022-10-30T12:25:27;94294.75;;;19.86;34.40
30935;BME280;51033;42.648;23.292;2022-10-30T12:28:20;94286.78;;;19.93;34.17
30935;BME280;51033;42.648;23.292;2022-10-30T12:33:26;94284.00;;;20.12;34.27
30935;BME280;51033;42.648;23.292;2022-10-30T12:35:58;94288.84;;;20.22;34.23
30935;BME280;51033;42.648;23.292;2022-10-30T12:38:32;94276.13;;;20.23;34.34
30935;BME280;51033;42.648;23.292;2022-10-30T12:43:41;94263.78;;;20.25;34.47
30935;BME280;51033;42.648;23.292;2022-10-30T12:49:10;94259.69;;;20.35;33.75
30935;BME280;51033;42.648;23.292;2022-10-30T12:54:40;94271.41;;;20.42;33.28
30935;BME280;51033;42.648;23.292;2022-10-30T12:57:12;94268.00;;;20.49;33.49
30935;BME280;51033;42.648;23.292;2022-10-30T12:59:45;94269.22;;;20.51;32.74
30935;BME280;51033;42.648;23.292;2022-10-30T13:05:42;94270.31;;;20.47;32.77
30935;BME280;51033;42.648;23.292;2022-10-30T13:08:33;94270.47;;;20.57;32.65
30935;BME280;51033;42.648;23.292;2022-10-30T13:11:11;94253.59;;;20.68;32.82
30935;BME280;51033;42.648;23.292;2022-10-30T13:13:42;94251.03;;;20.78;32.12
30935;BME280;51033;42.648;23.292;2022-10-30T13:16:30;94189.31;;;20.54;32.15
30935;BME280;51033;42.648;23.292;2022-10-30T13:18:58;94246.25;;;20.94;32.33
30935;BME280;51033;42.648;23.292;2022-10-30T13:27:09;94249.59;;;21.18;30.71
30935;BME280;51033;42.648;23.292;2022-10-30T13:29:55;94258.97;;;21.27;31.76
30935;BME280;51033;42.648;23.292;2022-10-30T13:32:34;94247.50;;;21.37;30.97
30935;BME280;51033;42.648;23.292;2022-10-30T13:40:53;94238.81;;;21.55;31.25
30935;BME280;51033;42.648;23.292;2022-10-30T13:43:31;94247.06;;;21.69;30.36
30935;BME280;51033;42.648;23.292;2022-10-30T13:46:16;94248.63;;;21.70;30.80
30935;BME280;51033;42.648;23.292;2022-10-30T13:51:48;94227.56;;;21.53;30.45
30935;BME280;51033;42.648;23.292;2022-10-30T13:54:25;94250.81;;;21.57;30.62
30935;BME280;51033;42.648;23.292;2022-10-30T13:56:55;94243.47;;;21.58;30.30
30935;BME280;51033;42.648;23.292;2022-10-30T13:59:28;94251.09;;;21.49;30.90
30935;BME280;51033;42.648;23.292;2022-10-30T14:02:11;94259.13;;;21.41;31.17
30935;BME280;51033;42.648;23.292;2022-10-30T14:13:06;94249.81;;;21.02;31.88
30935;BME280;51033;42.648;23.292;2022-10-30T14:15:45;94222.22;;;20.89;32.01
30935;BME280;51033;42.648;23.292;2022-10-30T14:20:37;94230.00;;;20.65;32.61
30935;BME280;51033;42.648;23.292;2022-10-30T14:26:11;94253.00;;;20.51;32.90
30935;BME280;51033;42.648;23.292;2022-10-30T14:28:42;94226.88;;;20.33;33.15
30935;BME280;51033;42.648;23.292;2022-10-30T14:36:23;94241.72;;;20.46;33.58
30935;BME280;51033;42.648;23.292;2022-10-30T14:49:32;94259.97;;;20.26;33.52
30935;BME280;51033;42.648;23.292;2022-10-30T14:52:14;94262.66;;;20.26;33.79
30935;BME280;51033;42.648;23.292;2022-10-30T14:54:47;94251.19;;;20.10;33.62
30935;BME280;51033;42.648;23.292;2022-10-30T15:10:49;94256.00;;;19.32;34.96
30935;BME280;51033;42.648;23.292;2022-10-30T15:13:20;94267.28;;;19.38;34.97
30935;BME280;51033;42.648;23.292;2022-10-30T15:16:00;94261.19;;;19.22;35.10
30935;BME280;51033;42.648;23.292;2022-10-30T15:18:27;94271.31;;;19.06;35.75
30935;BME280;51033;42.648;23.292;2022-10-30T15:20:53;94252.28;;;18.79;36.29
30935;BME280;51033;42.648;23.292;2022-10-30T15:23:29;94273.28;;;18.89;36.32
30935;BME280;51033;42.648;23.292;2022-10-30T15:26:15;94252.16;;;18.72;36.40
30935;BME280;51033;42.648;23.292;2022-10-30T15:28:50;94244.44;;;18.55;36.40
30935;BME280;51033;42.648;23.292;2022-10-30T15:33:41;94239.28;;;18.31;37.15
30935;BME280;51033;42.648;23.292;2022-10-30T15:36:20;94272.34;;;18.47;37.13
30935;BME280;51033;42.648;23.292;2022-10-30T15:41:30;94245.97;;;18.37;37.15